Time;durP1;ratioP1;P1;durP2;ratioP2;P2;SDS_P1;SDS_P2;PMS_P1;PMS_P2;Temp;Humidity;BMP_temperature;BMP_pressure;BME280_temperature;BME280_humidity;BME280_pressure;Samples;Min_cycle;Max_cycle;Signal;HPM_P1;HPM_P2
2022/01/15 00:01:34;;;;;;;10.07;4.23;;;;;;;;;;5028881;28;20526;-74
2022/01/15 00:04:00;;;;;;;8.23;3.67;;;;;;;;;;5029871;28;20083;-75
2022/01/15 00:06:25;;;;;;;6.83;3.60;;;;;;;;;;5024731;28;20417;-74
2022/01/15 00:08:51;;;;;;;8.17;4.20;;;;;;;;;;5028511;28;20480;-76
2022/01/15 00:11:17;;;;;;;9.00;4.30;;;;;;;;;;5029513;28;20033;-74
2022/01/15 00:13:44;;;;;;;5.43;3.70;;;;;;;;;;5028913;28;20495;-74
2022/01/15 00:16:14;;;;;;;8.40;4.77;;;;;;;;;;5029073;28;20037;-74
2022/01/15 00:18:44;;;;;;;7.43;3.80;;;;;;;;;;5024353;28;20041;-73
2022/01/15 00:21:11;;;;;;;6.77;4.47;;;;;;;;;;5022668;28;20113;-75
2022/01/15 00:23:36;;;;;;;8.37;3.87;;;;;;;;;;5029164;28;20082;-73
2022/01/15 00:26:02;;;;;;;6.60;3.73;;;;;;;;;;5029101;28;20123;-75
2022/01/15 00:28:28;;;;;;;8.30;4.70;;;;;;;;;;5032452;28;20036;-73
2022/01/15 00:30:53;;;;;;;6.67;4.10;;;;;;;;;;5028551;28;20048;-74
2022/01/15 00:33:19;;;;;;;5.73;4.20;;;;;;;;;;5030066;28;20038;-74
2022/01/15 00:35:44;;;;;;;6.53;3.73;;;;;;;;;;5028921;28;20056;-74
2022/01/15 00:38:10;;;;;;;6.83;3.73;;;;;;;;;;5027842;28;20065;-74
2022/01/15 00:40:35;;;;;;;6.27;4.00;;;;;;;;;;5027167;28;20079;-75
2022/01/15 00:43:01;;;;;;;5.63;3.73;;;;;;;;;;5029162;28;20037;-74
2022/01/15 00:45:32;;;;;;;10.20;3.73;;;;;;;;;;5061209;28;20029;-74
2022/01/15 00:47:57;;;;;;;7.20;3.60;;;;;;;;;;5032198;28;20028;-75
2022/01/15 00:50:23;;;;;;;8.23;3.00;;;;;;;;;;5035092;28;20112;-75
2022/01/15 00:52:49;;;;;;;6.00;3.63;;;;;;;;;;5032795;28;20025;-74
2022/01/15 00:55:17;;;;;;;8.97;4.33;;;;;;;;;;5033130;28;20388;-74
2022/01/15 00:57:43;;;;;;;5.63;3.97;;;;;;;;;;5032319;28;20044;-75
2022/01/15 01:00:11;;;;;;;10.27;3.60;;;;;;;;;;5032593;28;20033;-73
2022/01/15 01:02:36;;;;;;;5.47;3.13;;;;;;;;;;5031247;28;20124;-74
2022/01/15 01:05:02;;;;;;;5.97;3.43;;;;;;;;;;5032864;28;20121;-74
2022/01/15 01:07:28;;;;;;;6.80;3.40;;;;;;;;;;5032729;28;20021;-75
2022/01/15 01:23:07;;;;;;;8.67;3.27;;;;;;;;;;5032620;28;20068;-74
2022/01/15 01:25:38;;;;;;;6.57;3.40;;;;;;;;;;5031747;28;20037;-74
2022/01/15 01:28:09;;;;;;;5.67;3.30;;;;;;;;;;5031834;28;20112;-74
2022/01/15 01:30:51;;;;;;;4.33;3.10;;;;;;;;;;5031931;28;20485;-74
2022/01/15 01:36:02;;;;;;;4.35;3.22;;;;;;;;;;5031747;28;20036;-75
2022/01/15 01:38:53;;;;;;;5.87;3.00;;;;;;;;;;5031858;28;20462;-74
2022/01/15 01:41:19;;;;;;;7.17;3.67;;;;;;;;;;5025819;28;20107;-74
2022/01/15 01:43:51;;;;;;;5.37;3.43;;;;;;;;;;5030226;28;20023;-74
2022/01/15 01:48:55;;;;;;;5.87;3.77;;;;;;;;;;5031684;28;20120;-74
2022/01/15 01:51:39;;;;;;;6.87;3.63;;;;;;;;;;5031422;28;20029;-74
2022/01/15 01:54:07;;;;;;;5.30;3.27;;;;;;;;;;5029755;28;20469;-74
2022/01/15 01:56:35;;;;;;;5.73;3.30;;;;;;;;;;5030453;28;20084;-74
2022/01/15 01:59:03;;;;;;;5.90;3.17;;;;;;;;;;5030351;28;20037;-74
2022/01/15 02:01:29;;;;;;;7.70;3.57;;;;;;;;;;5028105;28;20053;-72
2022/01/15 02:03:54;;;;;;;4.63;3.23;;;;;;;;;;5030193;28;20175;-74
2022/01/15 02:06:20;;;;;;;5.10;3.40;;;;;;;;;;5030072;28;20029;-75
2022/01/15 02:08:50;;;;;;;6.30;3.33;;;;;;;;;;5031961;28;20173;-75
2022/01/15 02:11:16;;;;;;;7.70;3.90;;;;;;;;;;5030255;28;20034;-74
2022/01/15 02:13:44;;;;;;;6.00;3.63;;;;;;;;;;5031108;28;20068;-73
2022/01/15 02:16:11;;;;;;;5.63;3.23;;;;;;;;;;5029362;28;20041;-74
2022/01/15 02:18:37;;;;;;;7.83;3.40;;;;;;;;;;5031134;28;20116;-75
2022/01/15 02:23:34;;;;;;;9.40;3.97;;;;;;;;;;5025864;28;20299;-74
2022/01/15 02:26:04;;;;;;;10.57;4.07;;;;;;;;;;5046151;28;20056;-76
2022/01/15 02:28:41;;;;;;;6.17;3.60;;;;;;;;;;5024921;28;20021;-74
2022/01/15 02:31:13;;;;;;;7.10;3.80;;;;;;;;;;5027821;28;20048;-74
2022/01/15 02:33:40;;;;;;;4.28;3.08;;;;;;;;;;5027340;28;20038;-74
2022/01/15 02:36:13;;;;;;;4.57;3.47;;;;;;;;;;5030605;28;20030;-74
2022/01/15 02:38:40;;;;;;;5.17;3.47;;;;;;;;;;5030363;28;20033;-74
2022/01/15 02:41:06;;;;;;;7.40;3.23;;;;;;;;;;5045475;28;20062;-74
2022/01/15 02:43:33;;;;;;;5.83;3.60;;;;;;;;;;5029039;28;20037;-73
2022/01/15 02:46:18;;;;;;;4.67;3.30;;;;;;;;;;5028679;28;20025;-72
2022/01/15 02:48:52;;;;;;;4.73;3.03;;;;;;;;;;5029298;28;20017;-74
2022/01/15 02:51:23;;;;;;;5.40;3.23;;;;;;;;;;5030783;28;20068;-73
2022/01/15 02:53:54;;;;;;;7.13;3.17;;;;;;;;;;5026226;28;20033;-73
2022/01/15 02:56:37;;;;;;;5.35;3.60;;;;;;;;;;5027342;28;20036;-74
2022/01/15 02:59:04;;;;;;;6.53;3.88;;;;;;;;;;5032138;28;20095;-73
2022/01/15 03:01:31;;;;;;;9.30;3.90;;;;;;;;;;5030044;28;20025;-74
2022/01/15 03:03:57;;;;;;;5.97;3.40;;;;;;;;;;5028402;28;20021;-74
2022/01/15 03:06:23;;;;;;;6.53;3.73;;;;;;;;;;5045078;28;20036;-74
2022/01/15 03:08:50;;;;;;;10.83;3.90;;;;;;;;;;5029798;28;20022;-74
2022/01/15 03:11:15;;;;;;;6.67;3.80;;;;;;;;;;5028658;28;20440;-74
2022/01/15 03:13:42;;;;;;;8.37;3.70;;;;;;;;;;5029642;28;20029;-75
2022/01/15 03:16:10;;;;;;;8.37;3.33;;;;;;;;;;5044199;28;20356;-74
2022/01/15 03:18:35;;;;;;;6.80;3.73;;;;;;;;;;5028589;28;20473;-74
2022/01/15 03:21:01;;;;;;;16.63;4.20;;;;;;;;;;5028318;28;20355;-74
2022/01/15 03:23:26;;;;;;;6.03;3.37;;;;;;;;;;5029694;28;20033;-73
2022/01/15 03:25:52;;;;;;;6.03;3.20;;;;;;;;;;5029589;28;20168;-74
2022/01/15 03:28:18;;;;;;;7.83;3.40;;;;;;;;;;5028348;28;20029;-74
2022/01/15 03:30:43;;;;;;;5.07;3.20;;;;;;;;;;5028395;28;20032;-75
2022/01/15 03:33:09;;;;;;;7.57;3.50;;;;;;;;;;5029958;28;20029;-74
2022/01/15 03:35:36;;;;;;;10.53;3.87;;;;;;;;;;5029869;28;20025;-75
2022/01/15 03:38:02;;;;;;;7.80;3.60;;;;;;;;;;5029803;28;20525;-74
2022/01/15 03:40:28;;;;;;;6.27;3.40;;;;;;;;;;5028431;28;20528;-75
2022/01/15 03:42:54;;;;;;;6.30;4.13;;;;;;;;;;5028004;28;20026;-74
2022/01/15 03:45:21;;;;;;;8.67;3.80;;;;;;;;;;5029130;28;20174;-76
2022/01/15 03:47:47;;;;;;;6.53;3.77;;;;;;;;;;5028986;28;20108;-73
2022/01/15 03:50:13;;;;;;;6.87;4.67;;;;;;;;;;5029342;28;20025;-73
2022/01/15 03:52:39;;;;;;;8.37;3.60;;;;;;;;;;5029530;28;20028;-74
2022/01/15 03:55:10;;;;;;;7.67;3.97;;;;;;;;;;5029142;28;20229;-75
2022/01/15 03:57:37;;;;;;;7.90;4.63;;;;;;;;;;5025313;28;20381;-74
2022/01/15 04:00:21;;;;;;;10.47;3.63;;;;;;;;;;5026948;28;20021;-74
2022/01/15 04:02:48;;;;;;;9.53;3.57;;;;;;;;;;5043248;28;20053;-74
2022/01/15 04:05:14;;;;;;;10.23;4.13;;;;;;;;;;5028162;28;20029;-74
2022/01/15 04:07:40;;;;;;;6.47;3.70;;;;;;;;;;5028954;28;20041;-74
2022/01/15 04:10:08;;;;;;;7.93;4.20;;;;;;;;;;5029138;28;20124;-73
2022/01/15 04:12:33;;;;;;;6.57;3.77;;;;;;;;;;5019996;28;20064;-74
2022/01/15 04:14:59;;;;;;;12.43;4.73;;;;;;;;;;5027356;28;20057;-74
2022/01/15 04:17:25;;;;;;;10.13;4.27;;;;;;;;;;5029718;28;20025;-73
2022/01/15 04:19:51;;;;;;;7.90;4.60;;;;;;;;;;5030119;28;20418;-73
2022/01/15 04:22:17;;;;;;;9.10;4.93;;;;;;;;;;5031470;28;20064;-74
2022/01/15 04:24:42;;;;;;;10.43;4.50;;;;;;;;;;5035995;28;20033;-73
2022/01/15 04:27:08;;;;;;;9.03;4.40;;;;;;;;;;5036099;28;20469;-73
2022/01/15 04:29:34;;;;;;;13.10;5.00;;;;;;;;;;5033273;28;20523;-74
2022/01/15 04:32:00;;;;;;;14.40;5.57;;;;;;;;;;5033178;28;20025;-74
2022/01/15 04:34:27;;;;;;;10.10;4.27;;;;;;;;;;5033382;28;20055;-73
2022/01/15 04:37:03;;;;;;;7.00;4.77;;;;;;;;;;5027824;28;20593;-74
2022/01/15 04:39:29;;;;;;;8.07;4.50;;;;;;;;;;5032332;28;20056;-74
2022/01/15 04:41:55;;;;;;;5.77;3.83;;;;;;;;;;5032197;28;20072;-74
2022/01/15 04:44:20;;;;;;;9.00;4.73;;;;;;;;;;5032537;28;20033;-74
2022/01/15 04:46:46;;;;;;;11.73;5.73;;;;;;;;;;5032033;28;20025;-74
2022/01/15 04:49:12;;;;;;;7.30;4.17;;;;;;;;;;5032600;28;20172;-73
2022/01/15 04:51:37;;;;;;;11.17;4.43;;;;;;;;;;5031148;28;20429;-75
2022/01/15 04:54:03;;;;;;;13.57;6.20;;;;;;;;;;5032544;28;20367;-74
2022/01/15 04:56:29;;;;;;;10.63;5.30;;;;;;;;;;5032041;28;20256;-74
2022/01/15 04:58:55;;;;;;;11.20;5.37;;;;;;;;;;5032583;28;20482;-74
2022/01/15 05:01:20;;;;;;;14.43;6.60;;;;;;;;;;5031996;28;20466;-74
2022/01/15 05:03:46;;;;;;;8.53;4.83;;;;;;;;;;5032481;28;20124;-73
2022/01/15 05:06:12;;;;;;;9.70;5.30;;;;;;;;;;5033356;28;20112;-73
2022/01/15 05:08:39;;;;;;;10.17;6.30;;;;;;;;;;5032414;28;20017;-74
2022/01/15 05:11:11;;;;;;;10.77;6.27;;;;;;;;;;5032140;28;20550;-73
2022/01/15 05:13:37;;;;;;;12.55;5.60;;;;;;;;;;5031842;28;20033;-74
2022/01/15 05:16:04;;;;;;;10.83;6.20;;;;;;;;;;5025912;28;20053;-74
2022/01/15 05:18:29;;;;;;;9.43;5.73;;;;;;;;;;5032131;28;20029;-73
2022/01/15 05:20:56;;;;;;;10.60;5.20;;;;;;;;;;5030352;28;20662;-74
2022/01/15 05:23:22;;;;;;;19.67;7.13;;;;;;;;;;5031688;28;20036;-74
2022/01/15 05:25:47;;;;;;;9.50;5.90;;;;;;;;;;5030202;28;20029;-74
2022/01/15 05:28:13;;;;;;;10.23;6.23;;;;;;;;;;5031737;28;20059;-74
2022/01/15 05:30:38;;;;;;;11.30;6.43;;;;;;;;;;5030164;28;20444;-73
2022/01/15 05:33:04;;;;;;;11.60;6.37;;;;;;;;;;5029372;28;20057;-73
2022/01/15 05:35:29;;;;;;;13.00;6.47;;;;;;;;;;5031394;28;20033;-74
2022/01/15 05:37:56;;;;;;;13.60;6.10;;;;;;;;;;5030874;28;20060;-74
2022/01/15 05:40:22;;;;;;;11.27;5.97;;;;;;;;;;5031238;28;20320;-74
2022/01/15 05:42:48;;;;;;;17.83;6.70;;;;;;;;;;5030932;28;20137;-73
2022/01/15 05:45:15;;;;;;;9.10;5.97;;;;;;;;;;5029606;28;20044;-73
2022/01/15 05:47:41;;;;;;;11.40;6.20;;;;;;;;;;5031264;28;20036;-74
2022/01/15 05:50:07;;;;;;;16.87;7.83;;;;;;;;;;5029531;28;20037;-75
2022/01/15 05:52:33;;;;;;;10.27;6.17;;;;;;;;;;5031504;28;20455;-74
2022/01/15 05:55:00;;;;;;;12.67;6.40;;;;;;;;;;5031178;28;20033;-74
2022/01/15 05:57:25;;;;;;;13.90;6.40;;;;;;;;;;5031131;28;20048;-74
2022/01/15 05:59:51;;;;;;;18.47;7.03;;;;;;;;;;5029315;28;20396;-73
2022/01/15 06:02:21;;;;;;;11.87;6.57;;;;;;;;;;5029216;28;20034;-74
2022/01/15 06:04:47;;;;;;;14.70;6.83;;;;;;;;;;5029355;28;20026;-73
2022/01/15 06:07:12;;;;;;;11.60;6.77;;;;;;;;;;5029088;28;20397;-73
2022/01/15 06:09:38;;;;;;;15.33;6.37;;;;;;;;;;5030647;28;20025;-74
2022/01/15 06:12:04;;;;;;;11.80;6.27;;;;;;;;;;5029133;28;20037;-74
2022/01/15 06:14:30;;;;;;;15.03;7.23;;;;;;;;;;5031997;28;20033;-75
2022/01/15 06:16:58;;;;;;;11.37;6.97;;;;;;;;;;5027853;28;20044;-74
2022/01/15 06:19:24;;;;;;;11.97;6.30;;;;;;;;;;5030778;28;20030;-74
2022/01/15 06:21:50;;;;;;;12.77;7.00;;;;;;;;;;5030422;28;20083;-74
2022/01/15 06:24:15;;;;;;;13.27;6.17;;;;;;;;;;5030728;28;20025;-74
2022/01/15 06:26:42;;;;;;;13.37;7.50;;;;;;;;;;5029316;28;20030;-74
2022/01/15 06:29:08;;;;;;;16.30;6.20;;;;;;;;;;5030443;28;20017;-74
2022/01/15 06:31:34;;;;;;;15.23;6.43;;;;;;;;;;5025978;28;20041;-73
2022/01/15 06:34:00;;;;;;;13.47;7.30;;;;;;;;;;5027934;28;20436;-74
2022/01/15 06:36:26;;;;;;;16.90;7.90;;;;;;;;;;5030329;28;20481;-74
2022/01/15 06:38:52;;;;;;;13.37;7.13;;;;;;;;;;5030217;28;20088;-75
2022/01/15 06:41:17;;;;;;;14.17;7.73;;;;;;;;;;5028735;28;20049;-75
2022/01/15 06:43:43;;;;;;;19.70;7.70;;;;;;;;;;5030350;28;20032;-74
2022/01/15 06:46:08;;;;;;;11.87;6.37;;;;;;;;;;5027883;28;20111;-74
2022/01/15 06:48:34;;;;;;;12.13;7.20;;;;;;;;;;5030721;28;20055;-74
2022/01/15 06:51:00;;;;;;;11.93;6.17;;;;;;;;;;5029959;28;20610;-73
2022/01/15 06:53:25;;;;;;;12.83;6.93;;;;;;;;;;5028691;28;20060;-74
2022/01/15 06:55:52;;;;;;;12.17;6.40;;;;;;;;;;5029660;28;20345;-74
2022/01/15 06:58:19;;;;;;;12.47;6.77;;;;;;;;;;5029300;28;20083;-73
2022/01/15 07:00:46;;;;;;;12.90;7.10;;;;;;;;;;5027469;28;20030;-74
2022/01/15 07:03:12;;;;;;;11.97;6.40;;;;;;;;;;5029758;28;20056;-74
2022/01/15 07:05:38;;;;;;;11.63;6.93;;;;;;;;;;5029765;28;20697;-74
2022/01/15 07:08:04;;;;;;;17.63;6.67;;;;;;;;;;5029457;28;20556;-73
2022/01/15 07:10:30;;;;;;;14.57;6.00;;;;;;;;;;5030031;28;20037;-74
2022/01/15 07:12:55;;;;;;;12.90;6.33;;;;;;;;;;5029529;28;20233;-73
2022/01/15 07:15:21;;;;;;;12.00;6.17;;;;;;;;;;5031419;28;20121;-73
2022/01/15 07:17:48;;;;;;;12.27;6.57;;;;;;;;;;5030640;28;20366;-74
2022/01/15 07:20:16;;;;;;;15.53;6.50;;;;;;;;;;5029296;28;20037;-74
2022/01/15 07:22:42;;;;;;;12.30;6.53;;;;;;;;;;5029606;28;20043;-75
2022/01/15 07:25:10;;;;;;;10.80;6.30;;;;;;;;;;5028219;28;20026;-75
2022/01/15 07:27:37;;;;;;;13.10;7.17;;;;;;;;;;5029425;28;20037;-73
2022/01/15 07:30:05;;;;;;;12.07;6.23;;;;;;;;;;5028851;28;20399;-75
2022/01/15 07:32:30;;;;;;;53.30;8.63;;;;;;;;;;5028218;28;20037;-74
2022/01/15 07:34:56;;;;;;;14.73;8.27;;;;;;;;;;5026900;28;20080;-74
2022/01/15 07:37:21;;;;;;;14.83;7.17;;;;;;;;;;5029071;28;20508;-74
2022/01/15 07:39:47;;;;;;;12.70;7.00;;;;;;;;;;5028749;28;20033;-74
2022/01/15 07:42:13;;;;;;;15.67;6.23;;;;;;;;;;5029026;28;20062;-75
2022/01/15 07:44:39;;;;;;;12.07;6.60;;;;;;;;;;5027882;28;20457;-74
2022/01/15 07:47:05;;;;;;;16.27;7.67;;;;;;;;;;5029114;28;20108;-74
2022/01/15 07:49:32;;;;;;;16.70;6.50;;;;;;;;;;5027287;28;20477;-74
2022/01/15 07:51:58;;;;;;;15.57;6.50;;;;;;;;;;5026006;28;20035;-74
2022/01/15 07:54:25;;;;;;;15.57;6.93;;;;;;;;;;5029796;28;20064;-74
2022/01/15 07:56:55;;;;;;;18.60;7.47;;;;;;;;;;5028155;28;20095;-74
2022/01/15 07:59:23;;;;;;;16.50;6.90;;;;;;;;;;5029240;28;20410;-74
2022/01/15 08:01:49;;;;;;;19.10;7.27;;;;;;;;;;5029241;28;20030;-76
2022/01/15 08:04:14;;;;;;;14.00;6.63;;;;;;;;;;5028970;28;20465;-74
2022/01/15 08:06:41;;;;;;;14.87;7.27;;;;;;;;;;5043897;28;20029;-74
2022/01/15 08:09:07;;;;;;;15.67;7.30;;;;;;;;;;5027926;28;20029;-74
2022/01/15 08:11:33;;;;;;;13.60;7.20;;;;;;;;;;5029311;28;20033;-74
2022/01/15 08:13:58;;;;;;;15.47;8.00;;;;;;;;;;5028550;28;20025;-75
2022/01/15 08:16:24;;;;;;;14.47;6.73;;;;;;;;;;5029467;28;20071;-75
2022/01/15 08:18:49;;;;;;;14.83;6.90;;;;;;;;;;5028628;28;20105;-74
2022/01/15 08:21:15;;;;;;;19.13;7.43;;;;;;;;;;5028953;28;20044;-74
2022/01/15 08:23:40;;;;;;;14.53;6.93;;;;;;;;;;5028829;28;20389;-74
2022/01/15 08:26:06;;;;;;;15.40;7.17;;;;;;;;;;5027219;28;20037;-74
2022/01/15 08:28:32;;;;;;;16.07;7.43;;;;;;;;;;5027195;28;20029;-75
2022/01/15 08:30:58;;;;;;;15.60;6.83;;;;;;;;;;5043842;28;20122;-74
2022/01/15 08:33:23;;;;;;;13.83;6.53;;;;;;;;;;5028064;28;20457;-75
2022/01/15 08:35:49;;;;;;;12.77;7.23;;;;;;;;;;5028898;28;20550;-74
2022/01/15 08:38:15;;;;;;;18.33;8.20;;;;;;;;;;5027294;28;20547;-74
2022/01/15 08:40:42;;;;;;;19.90;7.63;;;;;;;;;;5028371;28;20100;-75
2022/01/15 08:43:07;;;;;;;12.60;6.63;;;;;;;;;;5028117;28;20521;-75
2022/01/15 08:45:35;;;;;;;15.17;6.43;;;;;;;;;;5026883;28;20032;-75
2022/01/15 08:48:00;;;;;;;15.67;7.30;;;;;;;;;;5028156;28;20374;-74
2022/01/15 08:50:26;;;;;;;21.00;9.73;;;;;;;;;;5023844;28;20040;-74
2022/01/15 08:52:51;;;;;;;18.37;7.47;;;;;;;;;;5023053;28;20040;-75
2022/01/15 08:55:17;;;;;;;17.87;7.70;;;;;;;;;;5028622;28;20037;-75
2022/01/15 08:57:44;;;;;;;14.43;5.97;;;;;;;;;;5028207;28;20033;-73
2022/01/15 09:00:14;;;;;;;12.17;6.90;;;;;;;;;;5017817;28;20056;-75
2022/01/15 09:02:40;;;;;;;11.20;6.30;;;;;;;;;;5023237;28;20036;-74
2022/01/15 09:05:06;;;;;;;21.07;7.77;;;;;;;;;;5028279;28;20029;-75
2022/01/15 09:07:32;;;;;;;13.23;5.50;;;;;;;;;;5028230;28;20029;-74
2022/01/15 09:09:57;;;;;;;15.70;6.50;;;;;;;;;;5030064;28;20388;-74
2022/01/15 09:12:23;;;;;;;11.60;6.40;;;;;;;;;;5026038;28;20381;-74
2022/01/15 09:14:52;;;;;;;18.47;7.53;;;;;;;;;;5031596;28;20029;-75
2022/01/15 09:17:18;;;;;;;23.20;7.37;;;;;;;;;;5030942;28;20281;-75
2022/01/15 09:19:43;;;;;;;16.53;6.83;;;;;;;;;;5030259;28;20099;-75
2022/01/15 09:22:11;;;;;;;14.03;6.97;;;;;;;;;;5033554;28;20120;-75
2022/01/15 09:24:37;;;;;;;17.63;8.20;;;;;;;;;;5044301;28;20025;-74
2022/01/15 09:30:12;;;;;;;14.33;6.40;;;;;;;;;;5032239;28;20059;-74
2022/01/15 09:32:33;;;;;;;17.80;8.27;;;;;;;;;;5030916;28;20041;-74
2022/01/15 09:34:58;;;;;;;16.27;7.90;;;;;;;;;;5029909;28;20022;-74
2022/01/15 09:37:25;;;;;;;13.07;6.83;;;;;;;;;;5031570;28;20025;-75
2022/01/15 09:39:50;;;;;;;25.50;8.03;;;;;;;;;;5030305;28;20021;-75
2022/01/15 09:42:16;;;;;;;13.70;7.10;;;;;;;;;;5029605;28;20523;-74
2022/01/15 09:44:44;;;;;;;20.30;8.27;;;;;;;;;;5031142;28;20037;-75
2022/01/15 09:47:11;;;;;;;23.10;7.03;;;;;;;;;;5029536;28;20063;-74
2022/01/15 09:49:41;;;;;;;14.07;6.27;;;;;;;;;;5029869;28;20029;-74
2022/01/15 09:52:07;;;;;;;12.27;6.27;;;;;;;;;;5031100;28;20044;-74
2022/01/15 09:54:33;;;;;;;15.70;7.97;;;;;;;;;;5029692;28;20116;-74
2022/01/15 09:56:58;;;;;;;15.67;6.40;;;;;;;;;;5031128;28;20442;-75
2022/01/15 09:59:24;;;;;;;13.33;5.60;;;;;;;;;;5031071;28;20025;-75
2022/01/15 10:01:50;;;;;;;12.43;5.30;;;;;;;;;;5030777;28;20068;-75
2022/01/15 10:04:15;;;;;;;8.27;4.83;;;;;;;;;;5029360;28;20062;-75
2022/01/15 10:07:07;;;;;;;11.23;5.27;;;;;;;;;;5030877;28;20031;-74
2022/01/15 10:09:35;;;;;;;14.43;5.75;;;;;;;;;;5040375;28;20493;-74
2022/01/15 10:12:01;;;;;;;14.73;5.77;;;;;;;;;;5030603;28;20029;-74
2022/01/15 10:14:35;;;;;;;9.93;5.23;;;;;;;;;;5031166;28;20072;-75
2022/01/15 10:17:17;;;;;;;20.70;6.80;;;;;;;;;;5030667;28;20029;-75
2022/01/15 10:19:43;;;;;;;17.60;6.43;;;;;;;;;;5030105;28;20040;-74
2022/01/15 10:22:17;;;;;;;19.17;6.53;;;;;;;;;;5030901;28;20112;-74
2022/01/15 10:25:14;;;;;;;11.10;5.57;;;;;;;;;;5031653;28;20033;-75
2022/01/15 10:27:42;;;;;;;10.47;5.37;;;;;;;;;;5027270;28;20464;-74
2022/01/15 10:30:18;;;;;;;12.30;5.83;;;;;;;;;;5029148;28;20087;-75
2022/01/15 10:32:58;;;;;;;20.83;6.90;;;;;;;;;;5031018;28;20104;-75
2022/01/15 10:35:26;;;;;;;15.23;5.27;;;;;;;;;;5030414;28;20053;-73
2022/01/15 10:38:00;;;;;;;8.93;4.67;;;;;;;;;;5030344;28;20052;-74
2022/01/15 10:40:55;;;;;;;8.67;5.30;;;;;;;;;;5029481;28;20038;-75
2022/01/15 10:43:31;;;;;;;14.83;7.50;;;;;;;;;;5028257;28;20126;-75
2022/01/15 10:46:02;;;;;;;9.23;5.50;;;;;;;;;;5025773;28;20371;-75
2022/01/15 10:48:35;;;;;;;8.43;4.47;;;;;;;;;;5029547;28;20454;-74
2022/01/15 10:51:06;;;;;;;8.83;5.47;;;;;;;;;;5029245;28;20040;-74
2022/01/15 10:53:44;;;;;;;10.73;5.37;;;;;;;;;;5046093;28;20493;-75
2022/01/15 10:56:12;;;;;;;13.63;4.30;;;;;;;;;;5029110;28;20040;-74
2022/01/15 10:58:38;;;;;;;7.50;4.47;;;;;;;;;;5030232;28;20030;-75
2022/01/15 11:01:05;;;;;;;8.83;4.73;;;;;;;;;;5028227;28;20214;-75
2022/01/15 11:03:43;;;;;;;8.90;4.40;;;;;;;;;;5045413;28;20049;-74
2022/01/15 11:06:08;;;;;;;10.63;4.60;;;;;;;;;;5025390;28;20029;-74
2022/01/15 11:08:36;;;;;;;13.73;5.10;;;;;;;;;;5027878;28;20029;-76
2022/01/15 11:11:04;;;;;;;10.60;6.17;;;;;;;;;;5030335;28;20441;-74
2022/01/15 11:13:41;;;;;;;11.50;4.90;;;;;;;;;;5030105;28;20029;-75
2022/01/15 11:16:14;;;;;;;9.53;4.97;;;;;;;;;;5027837;28;20037;-75
2022/01/15 11:18:45;;;;;;;8.03;4.57;;;;;;;;;;5029364;28;20048;-75
2022/01/15 11:21:13;;;;;;;8.85;5.07;;;;;;;;;;5024509;28;20168;-76
2022/01/15 11:23:40;;;;;;;8.27;4.50;;;;;;;;;;5029837;28;20025;-75
2022/01/15 11:26:08;;;;;;;9.87;5.07;;;;;;;;;;5026321;28;20486;-75
2022/01/15 11:28:34;;;;;;;6.73;5.03;;;;;;;;;;5030346;28;20024;-74
2022/01/15 11:31:09;;;;;;;8.63;4.70;;;;;;;;;;5030593;28;20096;-75
2022/01/15 11:33:40;;;;;;;13.13;6.23;;;;;;;;;;5031695;28;20497;-75
2022/01/15 11:36:07;;;;;;;16.13;5.75;;;;;;;;;;5029876;28;20028;-75
2022/01/15 11:38:50;;;;;;;11.87;5.90;;;;;;;;;;5029614;28;20033;-74
2022/01/15 11:41:28;;;;;;;10.23;5.90;;;;;;;;;;5029124;28;20107;-75
2022/01/15 11:44:04;;;;;;;25.13;7.43;;;;;;;;;;5023522;28;20032;-74
2022/01/15 11:46:33;;;;;;;12.60;5.33;;;;;;;;;;5024577;28;20114;-75
2022/01/15 11:49:29;;;;;;;20.33;6.40;;;;;;;;;;5028894;28;20021;-76
2022/01/15 11:51:55;;;;;;;19.60;6.27;;;;;;;;;;5025039;28;20082;-76
2022/01/15 11:54:21;;;;;;;17.03;5.87;;;;;;;;;;5027230;28;20029;-74
2022/01/15 11:56:48;;;;;;;9.00;5.00;;;;;;;;;;5027611;28;20033;-74
2022/01/15 11:59:28;;;;;;;7.87;4.20;;;;;;;;;;5028497;28;20160;-75
2022/01/15 12:02:01;;;;;;;11.37;5.17;;;;;;;;;;5023851;28;20140;-75
2022/01/15 12:04:30;;;;;;;9.70;4.97;;;;;;;;;;5027813;28;20063;-75
2022/01/15 12:07:04;;;;;;;9.67;4.90;;;;;;;;;;5028789;28;20025;-74
2022/01/15 12:09:38;;;;;;;9.00;4.50;;;;;;;;;;5027387;28;20488;-74
2022/01/15 12:12:19;;;;;;;9.30;4.23;;;;;;;;;;5028985;28;20037;-74
2022/01/15 12:14:53;;;;;;;8.00;4.30;;;;;;;;;;5043428;28;20377;-74
2022/01/15 12:17:22;;;;;;;14.77;5.30;;;;;;;;;;5028705;28;20038;-75
2022/01/15 12:19:48;;;;;;;8.97;4.00;;;;;;;;;;5038667;28;20087;-75
2022/01/15 12:22:33;;;;;;;9.03;5.07;;;;;;;;;;5028708;28;20377;-75
2022/01/15 12:25:04;;;;;;;9.03;4.90;;;;;;;;;;5027702;28;20022;-76
2022/01/15 12:27:33;;;;;;;9.05;4.63;;;;;;;;;;5028208;28;20505;-75
2022/01/15 12:30:20;;;;;;;9.20;4.77;;;;;;;;;;5027796;28;20101;-75
2022/01/15 12:32:50;;;;;;;19.47;6.17;;;;;;;;;;5023566;28;20041;-74
2022/01/15 12:35:22;;;;;;;9.47;4.10;;;;;;;;;;5022423;28;20033;-74
2022/01/15 12:38:05;;;;;;;9.88;4.20;;;;;;;;;;5027562;28;20025;-75
2022/01/15 12:40:52;;;;;;;13.87;6.20;;;;;;;;;;5027937;28;20128;-74
2022/01/15 12:43:20;;;;;;;8.80;4.77;;;;;;;;;;5028796;28;20107;-75
2022/01/15 12:45:50;;;;;;;15.20;5.90;;;;;;;;;;5041716;28;20040;-75
2022/01/15 12:48:18;;;;;;;12.00;5.23;;;;;;;;;;5026375;28;20037;-74
2022/01/15 12:50:47;;;;;;;12.73;5.00;;;;;;;;;;5032243;28;20041;-74
2022/01/15 12:53:13;;;;;;;9.60;4.73;;;;;;;;;;5032059;28;20030;-74
2022/01/15 12:55:40;;;;;;;13.20;5.20;;;;;;;;;;5032246;28;20066;-74
2022/01/15 12:58:08;;;;;;;8.10;4.83;;;;;;;;;;5032367;28;20420;-76
2022/01/15 13:00:37;;;;;;;11.27;4.17;;;;;;;;;;5032163;28;20463;-76
2022/01/15 13:03:06;;;;;;;18.77;6.20;;;;;;;;;;5030807;28;20037;-74
2022/01/15 13:05:38;;;;;;;8.30;4.63;;;;;;;;;;5032429;28;20033;-75
2022/01/15 13:08:05;;;;;;;21.67;6.43;;;;;;;;;;5030467;28;20033;-74
2022/01/15 13:10:33;;;;;;;20.43;6.10;;;;;;;;;;5032153;28;20030;-74
2022/01/15 13:12:59;;;;;;;9.90;5.27;;;;;;;;;;5032170;28;20037;-74
2022/01/15 13:15:27;;;;;;;17.53;6.80;;;;;;;;;;5031894;28;20495;-76
2022/01/15 13:17:52;;;;;;;9.70;4.90;;;;;;;;;;5031623;28;20029;-76
2022/01/15 13:20:31;;;;;;;8.13;5.17;;;;;;;;;;5031956;28;20025;-74
2022/01/15 13:22:57;;;;;;;10.13;5.27;;;;;;;;;;5031574;28;20489;-76
2022/01/15 13:25:24;;;;;;;13.57;5.07;;;;;;;;;;5030385;28;20063;-74
2022/01/15 13:27:52;;;;;;;13.23;4.70;;;;;;;;;;5030602;28;20029;-74
2022/01/15 13:30:19;;;;;;;10.27;4.20;;;;;;;;;;5031336;28;20104;-75
2022/01/15 13:33:01;;;;;;;7.43;4.17;;;;;;;;;;5031538;28;20560;-75
2022/01/15 13:35:38;;;;;;;10.37;4.10;;;;;;;;;;5031353;28;20029;-75
2022/01/15 13:38:10;;;;;;;11.90;4.47;;;;;;;;;;5025054;28;20387;-76
2022/01/15 13:40:38;;;;;;;12.23;4.63;;;;;;;;;;5033019;28;20033;-74
2022/01/15 13:43:06;;;;;;;14.80;4.83;;;;;;;;;;5036187;28;20057;-75
2022/01/15 13:45:38;;;;;;;8.30;4.50;;;;;;;;;;5029873;28;20095;-75
2022/01/15 13:48:16;;;;;;;14.52;4.57;;;;;;;;;;5031613;28;20033;-75
2022/01/15 13:53:49;;;;;;;10.80;4.43;;;;;;;;;;5031795;28;20036;-74
2022/01/15 13:56:21;;;;;;;11.07;4.87;;;;;;;;;;5029999;28;20040;-75
2022/01/15 13:58:52;;;;;;;13.53;5.37;;;;;;;;;;5029929;28;20067;-75
2022/01/15 14:01:23;;;;;;;13.63;5.47;;;;;;;;;;5030951;28;20037;-74
2022/01/15 14:03:49;;;;;;;19.27;5.57;;;;;;;;;;5029848;28;20013;-74
2022/01/15 14:06:16;;;;;;;10.93;5.43;;;;;;;;;;5030812;28;20035;-74
2022/01/15 14:08:42;;;;;;;13.17;5.43;;;;;;;;;;5026496;28;20455;-75
2022/01/15 14:11:12;;;;;;;11.20;6.07;;;;;;;;;;5045946;28;20356;-75
2022/01/15 14:13:39;;;;;;;9.63;5.20;;;;;;;;;;5030516;28;20071;-76
2022/01/15 14:16:25;;;;;;;8.57;5.57;;;;;;;;;;5028513;28;20560;-73
2022/01/15 14:21:42;;;;;;;12.47;6.27;;;;;;;;;;5043860;28;20075;-74
2022/01/15 14:24:19;;;;;;;11.60;5.20;;;;;;;;;;5044824;28;20025;-75
2022/01/15 14:26:49;;;;;;;17.47;5.97;;;;;;;;;;5024852;28;20037;-73
2022/01/15 14:29:16;;;;;;;9.10;5.13;;;;;;;;;;5028904;28;20517;-75
2022/01/15 14:31:42;;;;;;;8.30;5.57;;;;;;;;;;5030893;28;20033;-75
2022/01/15 14:34:07;;;;;;;18.37;6.37;;;;;;;;;;5029515;28;20029;-75
2022/01/15 14:36:33;;;;;;;8.17;4.87;;;;;;;;;;5030159;28;20056;-74
2022/01/15 14:39:03;;;;;;;16.10;6.40;;;;;;;;;;5029056;28;20060;-74
2022/01/15 14:41:30;;;;;;;10.53;6.23;;;;;;;;;;5030440;28;20545;-74
2022/01/15 14:43:56;;;;;;;22.17;6.73;;;;;;;;;;5030243;28;20029;-75
2022/01/15 14:46:22;;;;;;;15.73;6.03;;;;;;;;;;5028136;28;20103;-75
2022/01/15 14:48:47;;;;;;;15.70;6.63;;;;;;;;;;5045688;28;20071;-74
2022/01/15 14:51:16;;;;;;;10.63;6.53;;;;;;;;;;5030105;28;20033;-75
2022/01/15 14:53:45;;;;;;;23.80;9.57;;;;;;;;;;5030188;28;20029;-75
2022/01/15 14:56:12;;;;;;;17.87;6.60;;;;;;;;;;5044667;28;20111;-75
2022/01/15 14:58:38;;;;;;;8.27;5.63;;;;;;;;;;5028479;28;20113;-74
2022/01/15 15:01:04;;;;;;;11.77;6.23;;;;;;;;;;5028423;28;20327;-74
2022/01/15 15:03:31;;;;;;;24.13;7.60;;;;;;;;;;5028451;28;20780;-74
2022/01/15 15:05:58;;;;;;;18.67;6.83;;;;;;;;;;5029438;28;20040;-75
2022/01/15 15:08:23;;;;;;;12.83;6.57;;;;;;;;;;5028718;28;20037;-73
2022/01/15 15:10:51;;;;;;;11.23;5.93;;;;;;;;;;5045504;28;20033;-73
2022/01/15 15:13:19;;;;;;;10.40;5.73;;;;;;;;;;5030302;28;20056;-74